sensor_id;sensor_type;location;lat;lon;timestamp;P1;durP1;ratioP1;P2;durP2;ratioP2
36415;SDS011;22447;44.530;18.620;2023-07-29T00:00:54;8.13;;;5.65;;
36415;SDS011;22447;44.530;18.620;2023-07-29T00:03:21;6.82;;;5.13;;
36415;SDS011;22447;44.530;18.620;2023-07-29T00:05:47;7.68;;;5.63;;
36415;SDS011;22447;44.530;18.620;2023-07-29T00:08:13;9.82;;;5.47;;
36415;SDS011;22447;44.530;18.620;2023-07-29T00:10:39;8.73;;;5.30;;
36415;SDS011;22447;44.530;18.620;2023-07-29T00:13:05;9.75;;;5.72;;
36415;SDS011;22447;44.530;18.620;2023-07-29T00:15:32;8.43;;;5.57;;
36415;SDS011;22447;44.530;18.620;2023-07-29T00:17:58;7.97;;;5.65;;
36415;SDS011;22447;44.530;18.620;2023-07-29T00:20:24;8.52;;;5.53;;
36415;SDS011;22447;44.530;18.620;2023-07-29T00:22:51;8.73;;;5.65;;
36415;SDS011;22447;44.530;18.620;2023-07-29T00:25:19;9.32;;;5.50;;
36415;SDS011;22447;44.530;18.620;2023-07-29T00:27:46;9.85;;;5.57;;
36415;SDS011;22447;44.530;18.620;2023-07-29T00:30:12;9.63;;;5.50;;
36415;SDS011;22447;44.530;18.620;2023-07-29T00:32:38;10.27;;;5.75;;
36415;SDS011;22447;44.530;18.620;2023-07-29T00:35:04;8.43;;;5.55;;
36415;SDS011;22447;44.530;18.620;2023-07-29T00:37:31;9.00;;;5.90;;
36415;SDS011;22447;44.530;18.620;2023-07-29T00:39:57;8.23;;;6.00;;
36415;SDS011;22447;44.530;18.620;2023-07-29T00:42:23;9.98;;;5.93;;
36415;SDS011;22447;44.530;18.620;2023-07-29T00:44:50;11.82;;;5.88;;
36415;SDS011;22447;44.530;18.620;2023-07-29T00:47:16;8.60;;;5.72;;
36415;SDS011;22447;44.530;18.620;2023-07-29T00:49:43;10.77;;;5.25;;
36415;SDS011;22447;44.530;18.620;2023-07-29T00:52:10;14.98;;;5.95;;
36415;SDS011;22447;44.530;18.620;2023-07-29T00:54:40;7.13;;;5.50;;
36415;SDS011;22447;44.530;18.620;2023-07-29T00:57:11;10.73;;;5.22;;
36415;SDS011;22447;44.530;18.620;2023-07-29T00:59:39;8.48;;;5.13;;
36415;SDS011;22447;44.530;18.620;2023-07-29T01:02:06;9.30;;;5.65;;
36415;SDS011;22447;44.530;18.620;2023-07-29T01:04:32;6.70;;;5.20;;
36415;SDS011;22447;44.530;18.620;2023-07-29T01:07:01;6.50;;;5.07;;
36415;SDS011;22447;44.530;18.620;2023-07-29T01:10:04;7.83;;;5.33;;
36415;SDS011;22447;44.530;18.620;2023-07-29T01:15:28;7.72;;;5.57;;
36415;SDS011;22447;44.530;18.620;2023-07-29T01:18:26;8.07;;;5.45;;
36415;SDS011;22447;44.530;18.620;2023-07-29T01:21:03;7.63;;;5.28;;
36415;SDS011;22447;44.530;18.620;2023-07-29T01:23:33;8.50;;;5.00;;
36415;SDS011;22447;44.530;18.620;2023-07-29T01:26:02;8.07;;;5.25;;
36415;SDS011;22447;44.530;18.620;2023-07-29T01:28:28;8.73;;;5.13;;
36415;SDS011;22447;44.530;18.620;2023-07-29T01:33:42;7.00;;;5.22;;
36415;SDS011;22447;44.530;18.620;2023-07-29T01:36:33;9.45;;;5.60;;
36415;SDS011;22447;44.530;18.620;2023-07-29T01:39:05;8.00;;;5.68;;
36415;SDS011;22447;44.530;18.620;2023-07-29T01:41:31;7.25;;;5.55;;
36415;SDS011;22447;44.530;18.620;2023-07-29T01:43:57;10.60;;;5.40;;
36415;SDS011;22447;44.530;18.620;2023-07-29T01:46:23;8.10;;;5.13;;
36415;SDS011;22447;44.530;18.620;2023-07-29T01:48:50;12.57;;;5.03;;
36415;SDS011;22447;44.530;18.620;2023-07-29T01:51:16;10.63;;;5.68;;
36415;SDS011;22447;44.530;18.620;2023-07-29T01:53:42;7.20;;;5.43;;
36415;SDS011;22447;44.530;18.620;2023-07-29T01:56:08;9.27;;;5.80;;
36415;SDS011;22447;44.530;18.620;2023-07-29T01:58:38;6.50;;;5.47;;
36415;SDS011;22447;44.530;18.620;2023-07-29T02:01:04;10.98;;;5.18;;
36415;SDS011;22447;44.530;18.620;2023-07-29T02:03:30;9.10;;;6.30;;
36415;SDS011;22447;44.530;18.620;2023-07-29T02:05:56;7.65;;;5.60;;
36415;SDS011;22447;44.530;18.620;2023-07-29T02:08:22;8.48;;;5.43;;
36415;SDS011;22447;44.530;18.620;2023-07-29T02:10:48;8.25;;;5.60;;
36415;SDS011;22447;44.530;18.620;2023-07-29T02:13:14;10.68;;;5.60;;
36415;SDS011;22447;44.530;18.620;2023-07-29T02:15:41;7.53;;;5.35;;
36415;SDS011;22447;44.530;18.620;2023-07-29T02:18:07;8.35;;;5.50;;
36415;SDS011;22447;44.530;18.620;2023-07-29T02:20:33;8.95;;;6.03;;
36415;SDS011;22447;44.530;18.620;2023-07-29T02:22:59;7.63;;;6.13;;
36415;SDS011;22447;44.530;18.620;2023-07-29T02:25:25;10.60;;;5.53;;
36415;SDS011;22447;44.530;18.620;2023-07-29T02:27:51;8.63;;;5.53;;
36415;SDS011;22447;44.530;18.620;2023-07-29T02:30:18;8.43;;;5.82;;
36415;SDS011;22447;44.530;18.620;2023-07-29T02:32:44;6.78;;;5.20;;
36415;SDS011;22447;44.530;18.620;2023-07-29T02:35:10;12.77;;;5.88;;
36415;SDS011;22447;44.530;18.620;2023-07-29T02:37:41;11.35;;;5.55;;
36415;SDS011;22447;44.530;18.620;2023-07-29T02:40:07;8.57;;;5.80;;
36415;SDS011;22447;44.530;18.620;2023-07-29T02:42:34;10.25;;;5.20;;
36415;SDS011;22447;44.530;18.620;2023-07-29T02:45:00;7.32;;;5.75;;
36415;SDS011;22447;44.530;18.620;2023-07-29T02:47:26;8.55;;;5.45;;
36415;SDS011;22447;44.530;18.620;2023-07-29T02:49:52;10.05;;;5.35;;
36415;SDS011;22447;44.530;18.620;2023-07-29T02:52:18;8.05;;;5.28;;
36415;SDS011;22447;44.530;18.620;2023-07-29T02:54:44;8.73;;;5.80;;
36415;SDS011;22447;44.530;18.620;2023-07-29T02:57:10;11.43;;;6.85;;
36415;SDS011;22447;44.530;18.620;2023-07-29T02:59:36;11.40;;;6.63;;
36415;SDS011;22447;44.530;18.620;2023-07-29T03:02:02;11.52;;;7.10;;
36415;SDS011;22447;44.530;18.620;2023-07-29T03:04:28;8.98;;;7.10;;
36415;SDS011;22447;44.530;18.620;2023-07-29T03:06:54;9.68;;;6.75;;
36415;SDS011;22447;44.530;18.620;2023-07-29T03:09:20;9.65;;;7.18;;
36415;SDS011;22447;44.530;18.620;2023-07-29T03:11:46;7.75;;;6.68;;
36415;SDS011;22447;44.530;18.620;2023-07-29T03:14:12;9.05;;;5.93;;
36415;SDS011;22447;44.530;18.620;2023-07-29T03:16:38;7.75;;;6.55;;
36415;SDS011;22447;44.530;18.620;2023-07-29T03:19:04;8.45;;;5.55;;
36415;SDS011;22447;44.530;18.620;2023-07-29T03:21:31;9.18;;;6.00;;
36415;SDS011;22447;44.530;18.620;2023-07-29T03:23:58;8.95;;;5.93;;
36415;SDS011;22447;44.530;18.620;2023-07-29T03:26:24;9.38;;;5.93;;
36415;SDS011;22447;44.530;18.620;2023-07-29T03:28:50;9.43;;;5.75;;
36415;SDS011;22447;44.530;18.620;2023-07-29T03:31:16;11.60;;;5.88;;
36415;SDS011;22447;44.530;18.620;2023-07-29T03:33:45;7.10;;;5.55;;
36415;SDS011;22447;44.530;18.620;2023-07-29T03:36:11;10.15;;;6.32;;
36415;SDS011;22447;44.530;18.620;2023-07-29T03:38:37;9.02;;;6.00;;
36415;SDS011;22447;44.530;18.620;2023-07-29T03:41:07;8.35;;;5.95;;
36415;SDS011;22447;44.530;18.620;2023-07-29T03:43:33;8.25;;;5.90;;
36415;SDS011;22447;44.530;18.620;2023-07-29T03:46:01;7.35;;;6.05;;
36415;SDS011;22447;44.530;18.620;2023-07-29T03:48:27;9.52;;;6.00;;
36415;SDS011;22447;44.530;18.620;2023-07-29T03:50:53;8.55;;;5.28;;
36415;SDS011;22447;44.530;18.620;2023-07-29T03:53:19;9.68;;;5.45;;
36415;SDS011;22447;44.530;18.620;2023-07-29T03:55:45;9.25;;;6.25;;
36415;SDS011;22447;44.530;18.620;2023-07-29T03:58:12;9.13;;;5.90;;
36415;SDS011;22447;44.530;18.620;2023-07-29T04:00:38;10.40;;;5.68;;
36415;SDS011;22447;44.530;18.620;2023-07-29T04:03:04;8.35;;;6.70;;
36415;SDS011;22447;44.530;18.620;2023-07-29T04:05:30;9.90;;;6.10;;
36415;SDS011;22447;44.530;18.620;2023-07-29T04:07:56;7.60;;;6.20;;
36415;SDS011;22447;44.530;18.620;2023-07-29T04:10:22;8.82;;;6.20;;
36415;SDS011;22447;44.530;18.620;2023-07-29T04:12:48;10.80;;;6.30;;
36415;SDS011;22447;44.530;18.620;2023-07-29T04:15:14;9.27;;;6.47;;
36415;SDS011;22447;44.530;18.620;2023-07-29T04:17:40;11.65;;;6.95;;
36415;SDS011;22447;44.530;18.620;2023-07-29T04:20:06;8.60;;;6.57;;
36415;SDS011;22447;44.530;18.620;2023-07-29T04:22:33;10.20;;;7.18;;
36415;SDS011;22447;44.530;18.620;2023-07-29T04:24:59;12.23;;;7.32;;
36415;SDS011;22447;44.530;18.620;2023-07-29T04:27:25;13.02;;;7.90;;
36415;SDS011;22447;44.530;18.620;2023-07-29T04:29:51;14.00;;;7.57;;
36415;SDS011;22447;44.530;18.620;2023-07-29T04:32:17;10.55;;;6.85;;
36415;SDS011;22447;44.530;18.620;2023-07-29T04:34:43;17.02;;;8.63;;
36415;SDS011;22447;44.530;18.620;2023-07-29T04:37:09;15.27;;;8.20;;
36415;SDS011;22447;44.530;18.620;2023-07-29T04:39:35;13.23;;;8.35;;
36415;SDS011;22447;44.530;18.620;2023-07-29T04:42:01;12.25;;;7.10;;
36415;SDS011;22447;44.530;18.620;2023-07-29T04:44:27;10.98;;;6.60;;
36415;SDS011;22447;44.530;18.620;2023-07-29T04:46:53;6.95;;;5.82;;
36415;SDS011;22447;44.530;18.620;2023-07-29T04:49:19;7.85;;;5.90;;
36415;SDS011;22447;44.530;18.620;2023-07-29T04:51:45;8.07;;;5.90;;
36415;SDS011;22447;44.530;18.620;2023-07-29T04:54:11;11.07;;;6.40;;
36415;SDS011;22447;44.530;18.620;2023-07-29T04:56:37;10.80;;;6.50;;
36415;SDS011;22447;44.530;18.620;2023-07-29T04:59:03;10.43;;;6.28;;
36415;SDS011;22447;44.530;18.620;2023-07-29T05:01:29;11.00;;;6.30;;
36415;SDS011;22447;44.530;18.620;2023-07-29T05:03:55;11.98;;;5.95;;
36415;SDS011;22447;44.530;18.620;2023-07-29T05:06:21;10.10;;;6.18;;
36415;SDS011;22447;44.530;18.620;2023-07-29T05:08:48;13.73;;;6.25;;
36415;SDS011;22447;44.530;18.620;2023-07-29T05:11:14;9.50;;;6.28;;
36415;SDS011;22447;44.530;18.620;2023-07-29T05:13:40;10.40;;;6.43;;
36415;SDS011;22447;44.530;18.620;2023-07-29T05:16:06;15.38;;;7.22;;
36415;SDS011;22447;44.530;18.620;2023-07-29T05:18:32;14.88;;;7.68;;
36415;SDS011;22447;44.530;18.620;2023-07-29T05:20:58;14.30;;;6.72;;
36415;SDS011;22447;44.530;18.620;2023-07-29T05:23:24;13.05;;;6.85;;
36415;SDS011;22447;44.530;18.620;2023-07-29T05:25:50;13.68;;;6.50;;
36415;SDS011;22447;44.530;18.620;2023-07-29T05:28:16;19.25;;;7.10;;
36415;SDS011;22447;44.530;18.620;2023-07-29T05:30:43;15.43;;;8.02;;
36415;SDS011;22447;44.530;18.620;2023-07-29T05:33:09;12.48;;;7.22;;
36415;SDS011;22447;44.530;18.620;2023-07-29T05:35:37;12.20;;;6.70;;
36415;SDS011;22447;44.530;18.620;2023-07-29T05:38:03;13.50;;;6.20;;
36415;SDS011;22447;44.530;18.620;2023-07-29T05:40:31;15.70;;;6.72;;
36415;SDS011;22447;44.530;18.620;2023-07-29T05:42:57;10.73;;;6.60;;
36415;SDS011;22447;44.530;18.620;2023-07-29T05:45:23;17.63;;;7.65;;
36415;SDS011;22447;44.530;18.620;2023-07-29T05:47:50;13.18;;;6.88;;
36415;SDS011;22447;44.530;18.620;2023-07-29T05:50:16;17.30;;;7.30;;
36415;SDS011;22447;44.530;18.620;2023-07-29T05:52:42;14.27;;;6.93;;
36415;SDS011;22447;44.530;18.620;2023-07-29T05:58:12;19.58;;;7.82;;
36415;SDS011;22447;44.530;18.620;2023-07-29T06:00:38;12.07;;;7.32;;
36415;SDS011;22447;44.530;18.620;2023-07-29T06:03:04;14.85;;;7.28;;
36415;SDS011;22447;44.530;18.620;2023-07-29T06:05:30;12.68;;;6.20;;
36415;SDS011;22447;44.530;18.620;2023-07-29T06:07:56;15.48;;;7.03;;
36415;SDS011;22447;44.530;18.620;2023-07-29T06:10:22;10.23;;;6.35;;
36415;SDS011;22447;44.530;18.620;2023-07-29T06:12:48;17.70;;;7.53;;
36415;SDS011;22447;44.530;18.620;2023-07-29T06:15:14;21.27;;;7.88;;
36415;SDS011;22447;44.530;18.620;2023-07-29T06:17:40;11.90;;;7.13;;
36415;SDS011;22447;44.530;18.620;2023-07-29T06:20:07;10.35;;;7.18;;
36415;SDS011;22447;44.530;18.620;2023-07-29T06:22:33;13.18;;;7.13;;
36415;SDS011;22447;44.530;18.620;2023-07-29T06:24:59;15.15;;;7.05;;
36415;SDS011;22447;44.530;18.620;2023-07-29T06:27:25;18.98;;;8.70;;
36415;SDS011;22447;44.530;18.620;2023-07-29T06:29:51;13.68;;;7.15;;
36415;SDS011;22447;44.530;18.620;2023-07-29T06:32:16;13.23;;;6.70;;
36415;SDS011;22447;44.530;18.620;2023-07-29T06:34:42;17.73;;;7.40;;
36415;SDS011;22447;44.530;18.620;2023-07-29T06:37:08;17.63;;;7.88;;
36415;SDS011;22447;44.530;18.620;2023-07-29T06:39:34;11.55;;;7.03;;
36415;SDS011;22447;44.530;18.620;2023-07-29T06:42:00;17.23;;;7.95;;
36415;SDS011;22447;44.530;18.620;2023-07-29T06:44:27;17.23;;;6.95;;
36415;SDS011;22447;44.530;18.620;2023-07-29T06:46:53;20.30;;;8.75;;
36415;SDS011;22447;44.530;18.620;2023-07-29T06:49:19;22.83;;;8.80;;
36415;SDS011;22447;44.530;18.620;2023-07-29T06:51:44;26.35;;;8.98;;
36415;SDS011;22447;44.530;18.620;2023-07-29T06:54:10;29.60;;;9.48;;
36415;SDS011;22447;44.530;18.620;2023-07-29T06:56:36;26.00;;;8.75;;
36415;SDS011;22447;44.530;18.620;2023-07-29T06:59:02;23.65;;;8.35;;
36415;SDS011;22447;44.530;18.620;2023-07-29T07:01:28;31.02;;;9.02;;
36415;SDS011;22447;44.530;18.620;2023-07-29T07:03:54;22.50;;;8.38;;
36415;SDS011;22447;44.530;18.620;2023-07-29T07:06:23;20.48;;;7.88;;
36415;SDS011;22447;44.530;18.620;2023-07-29T07:08:50;17.35;;;8.18;;
36415;SDS011;22447;44.530;18.620;2023-07-29T07:11:18;15.00;;;7.45;;
36415;SDS011;22447;44.530;18.620;2023-07-29T07:13:44;17.98;;;7.63;;
36415;SDS011;22447;44.530;18.620;2023-07-29T07:16:10;16.38;;;6.97;;
36415;SDS011;22447;44.530;18.620;2023-07-29T07:18:36;15.90;;;7.22;;
36415;SDS011;22447;44.530;18.620;2023-07-29T07:21:02;17.13;;;6.50;;
36415;SDS011;22447;44.530;18.620;2023-07-29T07:23:28;18.15;;;6.43;;
36415;SDS011;22447;44.530;18.620;2023-07-29T07:25:54;12.80;;;6.40;;
36415;SDS011;22447;44.530;18.620;2023-07-29T07:28:20;14.65;;;6.60;;
36415;SDS011;22447;44.530;18.620;2023-07-29T07:30:46;12.85;;;6.45;;
36415;SDS011;22447;44.530;18.620;2023-07-29T07:33:12;18.23;;;6.78;;
36415;SDS011;22447;44.530;18.620;2023-07-29T07:35:38;11.10;;;5.90;;
36415;SDS011;22447;44.530;18.620;2023-07-29T07:38:04;16.85;;;7.03;;
36415;SDS011;22447;44.530;18.620;2023-07-29T07:40:33;13.90;;;6.20;;
36415;SDS011;22447;44.530;18.620;2023-07-29T07:42:59;12.02;;;5.97;;
36415;SDS011;22447;44.530;18.620;2023-07-29T07:45:25;17.33;;;6.07;;
36415;SDS011;22447;44.530;18.620;2023-07-29T07:47:54;14.05;;;6.03;;
36415;SDS011;22447;44.530;18.620;2023-07-29T07:50:20;14.23;;;5.70;;
36415;SDS011;22447;44.530;18.620;2023-07-29T07:52:46;17.20;;;6.25;;
36415;SDS011;22447;44.530;18.620;2023-07-29T07:55:12;15.02;;;6.05;;
36415;SDS011;22447;44.530;18.620;2023-07-29T07:57:38;11.00;;;5.50;;
36415;SDS011;22447;44.530;18.620;2023-07-29T08:00:04;13.07;;;5.53;;
36415;SDS011;22447;44.530;18.620;2023-07-29T08:02:38;15.25;;;5.85;;
36415;SDS011;22447;44.530;18.620;2023-07-29T08:05:04;14.73;;;5.60;;
36415;SDS011;22447;44.530;18.620;2023-07-29T08:07:30;12.15;;;5.88;;
36415;SDS011;22447;44.530;18.620;2023-07-29T08:09:56;8.93;;;4.60;;
36415;SDS011;22447;44.530;18.620;2023-07-29T08:12:22;12.05;;;4.47;;
36415;SDS011;22447;44.530;18.620;2023-07-29T08:14:48;7.82;;;4.20;;
36415;SDS011;22447;44.530;18.620;2023-07-29T08:17:14;14.00;;;5.57;;
36415;SDS011;22447;44.530;18.620;2023-07-29T08:19:40;13.70;;;5.15;;
36415;SDS011;22447;44.530;18.620;2023-07-29T08:22:06;8.90;;;4.35;;
36415;SDS011;22447;44.530;18.620;2023-07-29T08:24:32;7.20;;;3.83;;
36415;SDS011;22447;44.530;18.620;2023-07-29T08:26:59;10.23;;;5.35;;
36415;SDS011;22447;44.530;18.620;2023-07-29T08:29:25;13.23;;;5.45;;
36415;SDS011;22447;44.530;18.620;2023-07-29T08:31:51;10.68;;;4.88;;
36415;SDS011;22447;44.530;18.620;2023-07-29T08:34:17;10.48;;;5.05;;
36415;SDS011;22447;44.530;18.620;2023-07-29T08:36:43;8.25;;;4.68;;
36415;SDS011;22447;44.530;18.620;2023-07-29T08:39:09;8.07;;;4.00;;
36415;SDS011;22447;44.530;18.620;2023-07-29T08:41:55;13.27;;;4.68;;
36415;SDS011;22447;44.530;18.620;2023-07-29T08:44:27;13.07;;;4.45;;
36415;SDS011;22447;44.530;18.620;2023-07-29T08:46:58;8.20;;;3.67;;
36415;SDS011;22447;44.530;18.620;2023-07-29T08:49:25;8.77;;;3.70;;
36415;SDS011;22447;44.530;18.620;2023-07-29T08:51:53;8.93;;;3.97;;
36415;SDS011;22447;44.530;18.620;2023-07-29T08:54:20;11.38;;;4.40;;
36415;SDS011;22447;44.530;18.620;2023-07-29T08:56:46;7.22;;;4.13;;
36415;SDS011;22447;44.530;18.620;2023-07-29T08:59:12;8.85;;;3.55;;
36415;SDS011;22447;44.530;18.620;2023-07-29T09:01:39;8.00;;;3.38;;
36415;SDS011;22447;44.530;18.620;2023-07-29T09:04:06;7.43;;;3.63;;
36415;SDS011;22447;44.530;18.620;2023-07-29T09:06:32;9.70;;;3.67;;
36415;SDS011;22447;44.530;18.620;2023-07-29T09:09:00;6.97;;;3.58;;
36415;SDS011;22447;44.530;18.620;2023-07-29T09:11:26;9.40;;;3.35;;
36415;SDS011;22447;44.530;18.620;2023-07-29T09:13:53;10.90;;;4.53;;
36415;SDS011;22447;44.530;18.620;2023-07-29T09:16:20;5.60;;;2.78;;
36415;SDS011;22447;44.530;18.620;2023-07-29T09:18:50;7.05;;;3.05;;
36415;SDS011;22447;44.530;18.620;2023-07-29T09:21:17;5.35;;;3.28;;
36415;SDS011;22447;44.530;18.620;2023-07-29T09:23:48;11.63;;;3.88;;
36415;SDS011;22447;44.530;18.620;2023-07-29T09:26:23;5.35;;;3.10;;
36415;SDS011;22447;44.530;18.620;2023-07-29T09:28:53;5.72;;;2.83;;
36415;SDS011;22447;44.530;18.620;2023-07-29T09:31:24;6.82;;;3.10;;
36415;SDS011;22447;44.530;18.620;2023-07-29T09:33:58;5.82;;;3.22;;
36415;SDS011;22447;44.530;18.620;2023-07-29T09:36:25;8.30;;;3.78;;
36415;SDS011;22447;44.530;18.620;2023-07-29T09:38:55;8.18;;;3.00;;
36415;SDS011;22447;44.530;18.620;2023-07-29T09:41:25;5.32;;;2.80;;
36415;SDS011;22447;44.530;18.620;2023-07-29T09:43:56;7.18;;;3.05;;
36415;SDS011;22447;44.530;18.620;2023-07-29T09:46:23;7.72;;;2.83;;
36415;SDS011;22447;44.530;18.620;2023-07-29T09:48:53;6.07;;;3.75;;
36415;SDS011;22447;44.530;18.620;2023-07-29T09:51:23;6.57;;;2.63;;
36415;SDS011;22447;44.530;18.620;2023-07-29T09:53:50;5.25;;;2.67;;
36415;SDS011;22447;44.530;18.620;2023-07-29T09:58:50;11.77;;;4.13;;
36415;SDS011;22447;44.530;18.620;2023-07-29T10:01:16;4.35;;;2.63;;
36415;SDS011;22447;44.530;18.620;2023-07-29T10:03:44;9.88;;;3.80;;
36415;SDS011;22447;44.530;18.620;2023-07-29T10:06:10;10.48;;;3.97;;
36415;SDS011;22447;44.530;18.620;2023-07-29T10:08:37;10.35;;;4.20;;
36415;SDS011;22447;44.530;18.620;2023-07-29T10:11:08;8.80;;;3.70;;
36415;SDS011;22447;44.530;18.620;2023-07-29T10:13:35;11.75;;;4.80;;
36415;SDS011;22447;44.530;18.620;2023-07-29T10:16:03;7.20;;;3.85;;
36415;SDS011;22447;44.530;18.620;2023-07-29T10:18:30;5.93;;;3.45;;
36415;SDS011;22447;44.530;18.620;2023-07-29T10:20:58;8.85;;;4.32;;
36415;SDS011;22447;44.530;18.620;2023-07-29T10:23:26;9.68;;;4.15;;
36415;SDS011;22447;44.530;18.620;2023-07-29T10:26:02;11.10;;;4.63;;
36415;SDS011;22447;44.530;18.620;2023-07-29T10:28:30;9.20;;;4.13;;
36415;SDS011;22447;44.530;18.620;2023-07-29T10:30:57;7.97;;;3.90;;
36415;SDS011;22447;44.530;18.620;2023-07-29T10:33:24;11.05;;;4.22;;
36415;SDS011;22447;44.530;18.620;2023-07-29T10:35:54;9.15;;;3.75;;
36415;SDS011;22447;44.530;18.620;2023-07-29T10:38:21;9.40;;;3.47;;
36415;SDS011;22447;44.530;18.620;2023-07-29T10:43:25;9.45;;;4.13;;
36415;SDS011;22447;44.530;18.620;2023-07-29T10:46:22;18.20;;;6.53;;
36415;SDS011;22447;44.530;18.620;2023-07-29T10:51:22;10.52;;;4.00;;
36415;SDS011;22447;44.530;18.620;2023-07-29T10:53:48;5.85;;;3.22;;
36415;SDS011;22447;44.530;18.620;2023-07-29T10:56:27;7.60;;;3.50;;
36415;SDS011;22447;44.530;18.620;2023-07-29T11:01:42;8.75;;;4.50;;
36415;SDS011;22447;44.530;18.620;2023-07-29T11:09:54;11.15;;;3.88;;
36415;SDS011;22447;44.530;18.620;2023-07-29T11:15:04;15.32;;;5.97;;
36415;SDS011;22447;44.530;18.620;2023-07-29T11:17:42;17.77;;;5.13;;
36415;SDS011;22447;44.530;18.620;2023-07-29T11:20:16;10.45;;;4.18;;
36415;SDS011;22447;44.530;18.620;2023-07-29T11:22:43;9.52;;;4.00;;
36415;SDS011;22447;44.530;18.620;2023-07-29T11:25:12;15.40;;;4.72;;
36415;SDS011;22447;44.530;18.620;2023-07-29T11:30:09;9.48;;;3.65;;
36415;SDS011;22447;44.530;18.620;2023-07-29T11:32:37;8.68;;;3.42;;
36415;SDS011;22447;44.530;18.620;2023-07-29T11:35:05;7.22;;;3.78;;
36415;SDS011;22447;44.530;18.620;2023-07-29T11:37:33;8.68;;;3.65;;
36415;SDS011;22447;44.530;18.620;2023-07-29T11:40:00;14.30;;;4.88;;
36415;SDS011;22447;44.530;18.620;2023-07-29T11:42:27;8.13;;;4.30;;
36415;SDS011;22447;44.530;18.620;2023-07-29T11:44:55;13.13;;;3.55;;
36415;SDS011;22447;44.530;18.620;2023-07-29T11:49:49;8.65;;;3.65;;
36415;SDS011;22447;44.530;18.620;2023-07-29T11:52:15;7.65;;;4.03;;
36415;SDS011;22447;44.530;18.620;2023-07-29T11:54:44;45.40;;;8.05;;
36415;SDS011;22447;44.530;18.620;2023-07-29T11:57:12;10.60;;;3.85;;
36415;SDS011;22447;44.530;18.620;2023-07-29T11:59:39;7.18;;;3.10;;
36415;SDS011;22447;44.530;18.620;2023-07-29T12:02:16;6.97;;;3.47;;
36415;SDS011;22447;44.530;18.620;2023-07-29T12:04:44;9.35;;;3.75;;
36415;SDS011;22447;44.530;18.620;2023-07-29T12:07:12;6.55;;;3.50;;
36415;SDS011;22447;44.530;18.620;2023-07-29T12:09:40;8.77;;;4.10;;
36415;SDS011;22447;44.530;18.620;2023-07-29T12:12:07;8.07;;;3.75;;
36415;SDS011;22447;44.530;18.620;2023-07-29T12:14:34;6.78;;;3.78;;
36415;SDS011;22447;44.530;18.620;2023-07-29T12:17:03;8.15;;;3.55;;
36415;SDS011;22447;44.530;18.620;2023-07-29T12:19:34;9.07;;;3.70;;
36415;SDS011;22447;44.530;18.620;2023-07-29T12:22:02;19.52;;;8.02;;
36415;SDS011;22447;44.530;18.620;2023-07-29T12:24:29;12.90;;;4.10;;
36415;SDS011;22447;44.530;18.620;2023-07-29T12:26:56;8.98;;;3.92;;
36415;SDS011;22447;44.530;18.620;2023-07-29T12:29:23;6.13;;;3.33;;
36415;SDS011;22447;44.530;18.620;2023-07-29T12:31:49;9.45;;;3.85;;
36415;SDS011;22447;44.530;18.620;2023-07-29T12:34:24;8.50;;;3.65;;
36415;SDS011;22447;44.530;18.620;2023-07-29T12:36:51;12.32;;;4.57;;
36415;SDS011;22447;44.530;18.620;2023-07-29T12:41:54;19.95;;;5.50;;
36415;SDS011;22447;44.530;18.620;2023-07-29T12:44:55;8.73;;;3.25;;
36415;SDS011;22447;44.530;18.620;2023-07-29T12:47:14;9.63;;;4.57;;
36415;SDS011;22447;44.530;18.620;2023-07-29T12:49:40;10.82;;;4.10;;
36415;SDS011;22447;44.530;18.620;2023-07-29T12:52:06;10.70;;;4.32;;
36415;SDS011;22447;44.530;18.620;2023-07-29T12:54:32;7.55;;;4.07;;
36415;SDS011;22447;44.530;18.620;2023-07-29T12:56:58;12.25;;;5.90;;
36415;SDS011;22447;44.530;18.620;2023-07-29T12:59:24;8.93;;;4.80;;
36415;SDS011;22447;44.530;18.620;2023-07-29T13:01:50;7.97;;;3.78;;
36415;SDS011;22447;44.530;18.620;2023-07-29T13:04:16;8.88;;;3.83;;
36415;SDS011;22447;44.530;18.620;2023-07-29T13:06:42;7.90;;;3.60;;
36415;SDS011;22447;44.530;18.620;2023-07-29T13:09:08;7.95;;;4.28;;
36415;SDS011;22447;44.530;18.620;2023-07-29T13:11:34;8.27;;;4.30;;
36415;SDS011;22447;44.530;18.620;2023-07-29T13:14:00;7.00;;;3.83;;
36415;SDS011;22447;44.530;18.620;2023-07-29T13:16:27;6.55;;;3.50;;
36415;SDS011;22447;44.530;18.620;2023-07-29T13:18:53;8.30;;;3.40;;
36415;SDS011;22447;44.530;18.620;2023-07-29T13:21:19;6.25;;;3.10;;
36415;SDS011;22447;44.530;18.620;2023-07-29T13:23:45;4.78;;;3.13;;
36415;SDS011;22447;44.530;18.620;2023-07-29T13:26:11;7.53;;;4.50;;
36415;SDS011;22447;44.530;18.620;2023-07-29T13:28:37;6.82;;;3.30;;
36415;SDS011;22447;44.530;18.620;2023-07-29T13:31:03;5.95;;;3.55;;
36415;SDS011;22447;44.530;18.620;2023-07-29T13:33:29;10.50;;;4.10;;
36415;SDS011;22447;44.530;18.620;2023-07-29T13:38:28;11.07;;;4.03;;
36415;SDS011;22447;44.530;18.620;2023-07-29T13:40:55;6.38;;;3.65;;
36415;SDS011;22447;44.530;18.620;2023-07-29T13:43:21;6.95;;;3.70;;
36415;SDS011;22447;44.530;18.620;2023-07-29T13:45:47;6.68;;;3.60;;
36415;SDS011;22447;44.530;18.620;2023-07-29T13:48:15;4.18;;;3.58;;
36415;SDS011;22447;44.530;18.620;2023-07-29T13:50:41;10.63;;;5.03;;
36415;SDS011;22447;44.530;18.620;2023-07-29T13:53:09;7.05;;;3.92;;
36415;SDS011;22447;44.530;18.620;2023-07-29T13:55:35;4.90;;;3.40;;
36415;SDS011;22447;44.530;18.620;2023-07-29T13:58:01;6.35;;;4.07;;
36415;SDS011;22447;44.530;18.620;2023-07-29T14:00:27;5.57;;;3.33;;
36415;SDS011;22447;44.530;18.620;2023-07-29T14:02:53;17.63;;;4.88;;
36415;SDS011;22447;44.530;18.620;2023-07-29T14:05:19;10.10;;;4.75;;
36415;SDS011;22447;44.530;18.620;2023-07-29T14:07:45;9.30;;;3.72;;
36415;SDS011;22447;44.530;18.620;2023-07-29T14:10:11;6.63;;;4.07;;
36415;SDS011;22447;44.530;18.620;2023-07-29T14:12:37;8.43;;;4.25;;
36415;SDS011;22447;44.530;18.620;2023-07-29T14:15:04;6.75;;;3.83;;
36415;SDS011;22447;44.530;18.620;2023-07-29T14:17:31;8.13;;;3.88;;
36415;SDS011;22447;44.530;18.620;2023-07-29T14:19:57;6.35;;;3.60;;
36415;SDS011;22447;44.530;18.620;2023-07-29T14:22:23;9.93;;;3.90;;
36415;SDS011;22447;44.530;18.620;2023-07-29T14:24:49;4.65;;;3.05;;
36415;SDS011;22447;44.530;18.620;2023-07-29T14:27:16;7.18;;;4.07;;
36415;SDS011;22447;44.530;18.620;2023-07-29T14:29:42;7.05;;;3.33;;
36415;SDS011;22447;44.530;18.620;2023-07-29T14:32:08;8.05;;;3.65;;
36415;SDS011;22447;44.530;18.620;2023-07-29T14:34:34;9.95;;;3.67;;
36415;SDS011;22447;44.530;18.620;2023-07-29T14:37:00;6.20;;;3.13;;
36415;SDS011;22447;44.530;18.620;2023-07-29T14:39:26;7.47;;;3.13;;
36415;SDS011;22447;44.530;18.620;2023-07-29T14:41:52;9.45;;;3.75;;
36415;SDS011;22447;44.530;18.620;2023-07-29T14:44:18;6.63;;;4.00;;
36415;SDS011;22447;44.530;18.620;2023-07-29T14:46:44;5.75;;;3.60;;
36415;SDS011;22447;44.530;18.620;2023-07-29T14:49:10;5.65;;;4.10;;
36415;SDS011;22447;44.530;18.620;2023-07-29T14:51:36;8.77;;;4.10;;
36415;SDS011;22447;44.530;18.620;2023-07-29T14:54:02;8.57;;;3.20;;
36415;SDS011;22447;44.530;18.620;2023-07-29T14:56:29;6.20;;;3.47;;
36415;SDS011;22447;44.530;18.620;2023-07-29T14:58:55;5.45;;;3.38;;
36415;SDS011;22447;44.530;18.620;2023-07-29T15:01:21;6.47;;;3.00;;
36415;SDS011;22447;44.530;18.620;2023-07-29T15:03:47;7.80;;;3.42;;
36415;SDS011;22447;44.530;18.620;2023-07-29T15:06:13;4.35;;;2.72;;